createdAt,value
2022-08-25T00:01:54.321Z,21.76
2022-08-25T00:04:24.176Z,21.75
2022-08-25T00:06:52.824Z,21.72
2022-08-25T00:09:25.330Z,21.70
2022-08-25T00:11:54.401Z,21.71
2022-08-25T00:14:31.798Z,21.68
2022-08-25T00:16:59.131Z,21.65
2022-08-25T00:19:32.140Z,21.62
2022-08-25T00:22:00.993Z,21.60
2022-08-25T00:24:29.029Z,21.58
2022-08-25T00:26:59.221Z,21.55
2022-08-25T00:29:28.052Z,21.55
2022-08-25T00:31:57.980Z,21.56
2022-08-25T00:34:34.379Z,21.55
2022-08-25T00:37:04.106Z,21.55
2022-08-25T00:39:31.156Z,21.53
2022-08-25T00:41:59.641Z,21.54
2022-08-25T00:44:31.928Z,21.53
2022-08-25T00:47:02.667Z,21.53
2022-08-25T00:49:48.014Z,21.49
2022-08-25T00:52:23.920Z,21.44
2022-08-25T00:55:06.339Z,21.40
2022-08-25T00:57:46.083Z,21.40
2022-08-25T01:00:22.896Z,21.38
2022-08-25T01:02:50.703Z,21.37
2022-08-25T01:05:19.390Z,21.36
2022-08-25T01:07:46.978Z,21.35
2022-08-25T01:10:14.273Z,21.33
2022-08-25T01:12:41.785Z,21.31
2022-08-25T01:15:13.187Z,21.31
2022-08-25T01:17:52.398Z,21.30
2022-08-25T01:20:26.062Z,21.26
2022-08-25T01:22:57.483Z,21.23
2022-08-25T01:25:51.274Z,21.21
2022-08-25T01:28:20.898Z,21.17
2022-08-25T01:30:49.413Z,21.15
2022-08-25T01:33:17.344Z,21.13
2022-08-25T01:35:44.958Z,21.09
2022-08-25T01:38:13.531Z,21.08
2022-08-25T01:40:42.864Z,21.07
2022-08-25T01:43:15.426Z,21.04
2022-08-25T01:45:47.434Z,21.00
2022-08-25T01:48:16.341Z,20.98
2022-08-25T01:50:44.236Z,20.96
2022-08-25T01:53:30.058Z,20.93
2022-08-25T01:56:10.243Z,20.90
2022-08-25T01:58:46.107Z,20.87
2022-08-25T02:01:20.685Z,20.87
2022-08-25T02:03:52.354Z,20.84
2022-08-25T02:06:28.629Z,20.83
2022-08-25T02:09:01.643Z,20.82
2022-08-25T02:11:29.413Z,20.80
2022-08-25T02:13:57.004Z,20.80
2022-08-25T02:16:30.138Z,20.79
2022-08-25T02:18:59.275Z,20.78
2022-08-25T02:21:26.862Z,20.78
2022-08-25T02:23:54.157Z,20.77
2022-08-25T02:26:22.654Z,20.77
2022-08-25T02:28:52.300Z,20.76
2022-08-25T02:31:23.355Z,20.74
2022-08-25T02:33:53.223Z,20.71
2022-08-25T02:36:21.352Z,20.67
2022-08-25T02:38:51.245Z,20.62
2022-08-25T02:41:30.917Z,20.58
2022-08-25T02:44:00.710Z,20.57
2022-08-25T02:46:28.576Z,20.55
2022-08-25T02:48:55.580Z,20.55
2022-08-25T02:51:25.570Z,20.53
2022-08-25T02:53:52.915Z,20.53
2022-08-25T02:56:20.229Z,20.52
2022-08-25T02:58:48.249Z,20.50
2022-08-25T03:01:16.956Z,20.51
2022-08-25T03:03:47.417Z,20.50
2022-08-25T03:06:18.843Z,20.52
2022-08-25T03:08:45.962Z,20.53
2022-08-25T03:11:13.301Z,20.53
2022-08-25T03:13:40.579Z,20.51
2022-08-25T03:16:11.103Z,20.53
2022-08-25T03:18:41.200Z,20.52
2022-08-25T03:21:11.726Z,20.52
2022-08-25T03:23:41.150Z,20.53
2022-08-25T03:26:28.041Z,20.51
2022-08-25T03:28:58.065Z,20.47
2022-08-25T03:31:27.683Z,20.44
2022-08-25T03:33:55.838Z,20.42
2022-08-25T03:36:24.082Z,20.39
2022-08-25T03:38:52.326Z,20.38
2022-08-25T03:41:29.171Z,20.37
2022-08-25T03:43:56.896Z,20.37
2022-08-25T03:46:31.622Z,20.36
2022-08-25T03:49:01.808Z,20.36
2022-08-25T03:51:42.539Z,20.34
2022-08-25T03:54:11.389Z,20.32
2022-08-25T03:56:38.901Z,20.32
2022-08-25T03:59:09.137Z,20.34
2022-08-25T04:01:44.650Z,20.35
2022-08-25T04:04:14.787Z,20.38
2022-08-25T04:06:44.547Z,20.39
2022-08-25T04:09:12.677Z,20.40
2022-08-25T04:11:41.031Z,20.41
2022-08-25T04:14:12.980Z,20.41
2022-08-25T04:16:45.276Z,20.41
2022-08-25T04:19:13.016Z,20.40
2022-08-25T04:21:41.191Z,20.42
2022-08-25T04:24:12.021Z,20.44
2022-08-25T04:26:45.217Z,20.45
2022-08-25T04:29:15.616Z,20.46
2022-08-25T04:31:50.378Z,20.45
2022-08-25T04:34:29.830Z,20.46
2022-08-25T04:37:05.511Z,20.44
2022-08-25T04:39:32.899Z,20.42
2022-08-25T04:42:00.897Z,20.42
2022-08-25T04:44:29.578Z,20.41
2022-08-25T04:46:57.147Z,20.41
2022-08-25T04:49:24.330Z,20.41
2022-08-25T04:51:51.105Z,20.40
2022-08-25T04:54:21.828Z,20.40
2022-08-25T04:56:54.452Z,20.41
2022-08-25T04:59:29.948Z,20.41
2022-08-25T05:02:03.014Z,20.41
2022-08-25T05:04:31.956Z,20.42
2022-08-25T05:07:00.275Z,20.41
2022-08-25T05:09:28.155Z,20.39
2022-08-25T05:11:55.321Z,20.40
2022-08-25T05:14:26.513Z,20.41
2022-08-25T05:16:55.760Z,20.42
2022-08-25T05:19:24.264Z,20.44
2022-08-25T05:21:52.303Z,20.44
2022-08-25T05:24:20.047Z,20.49
2022-08-25T05:26:47.146Z,20.51
2022-08-25T05:29:14.513Z,20.53
2022-08-25T05:31:47.079Z,20.53
2022-08-25T05:34:18.920Z,20.54
2022-08-25T05:36:46.710Z,20.52
2022-08-25T05:39:13.740Z,20.53
2022-08-25T05:41:40.865Z,20.54
2022-08-25T05:44:08.103Z,20.57
2022-08-25T05:46:35.076Z,20.62
2022-08-25T05:49:02.239Z,20.66
2022-08-25T05:51:29.490Z,20.70
2022-08-25T05:53:56.435Z,20.74
2022-08-25T05:56:23.713Z,20.76
2022-08-25T05:58:50.570Z,20.77
2022-08-25T06:01:45.186Z,20.83
2022-08-25T06:04:15.890Z,20.86
2022-08-25T06:06:42.887Z,20.94
2022-08-25T06:09:10.725Z,20.93
2022-08-25T06:11:40.410Z,20.93
2022-08-25T06:14:10.025Z,20.94
2022-08-25T06:16:39.206Z,21.01
2022-08-25T06:19:09.179Z,21.06
2022-08-25T06:21:39.340Z,21.09
2022-08-25T06:24:12.060Z,21.14
2022-08-25T06:26:41.800Z,21.13
2022-08-25T06:29:08.716Z,21.16
2022-08-25T06:31:35.609Z,21.18
2022-08-25T06:34:02.779Z,21.16
2022-08-25T06:36:30.094Z,21.18
2022-08-25T06:38:57.026Z,21.23
2022-08-25T06:41:25.621Z,21.28
2022-08-25T06:44:05.779Z,21.32
2022-08-25T06:46:36.341Z,21.35
2022-08-25T06:49:06.311Z,21.37
2022-08-25T06:51:36.046Z,21.44
2022-08-25T06:54:06.469Z,21.45
2022-08-25T06:56:34.598Z,21.49
2022-08-25T06:59:08.962Z,21.49
2022-08-25T07:01:37.538Z,21.53
2022-08-25T07:04:10.447Z,21.56
2022-08-25T07:06:40.538Z,21.65
2022-08-25T07:09:10.276Z,21.69
2022-08-25T07:11:39.478Z,21.70
2022-08-25T07:14:11.685Z,21.75
2022-08-25T07:16:42.411Z,21.82
2022-08-25T07:19:13.873Z,21.85
2022-08-25T07:21:45.800Z,21.87
2022-08-25T07:24:14.870Z,21.90
2022-08-25T07:26:44.160Z,21.98
2022-08-25T07:29:20.033Z,22.02
2022-08-25T07:31:58.887Z,22.12
2022-08-25T07:34:44.325Z,22.13
2022-08-25T07:37:38.341Z,22.20
2022-08-25T07:40:10.826Z,22.30
2022-08-25T07:42:38.153Z,22.34
2022-08-25T07:45:07.439Z,22.36
2022-08-25T07:47:34.914Z,22.40
2022-08-25T07:50:01.855Z,22.42
2022-08-25T07:52:29.057Z,22.44
2022-08-25T07:54:57.001Z,22.50
2022-08-25T07:57:26.566Z,22.55
2022-08-25T07:59:53.419Z,22.65
2022-08-25T08:02:20.518Z,22.77
2022-08-25T08:04:53.797Z,22.83
2022-08-25T08:07:42.127Z,22.86
2022-08-25T08:13:03.892Z,23.01
2022-08-25T08:15:32.989Z,23.09
2022-08-25T08:18:00.664Z,23.12
2022-08-25T08:20:29.155Z,23.15
2022-08-25T08:22:56.503Z,23.21
2022-08-25T08:25:27.448Z,23.26
2022-08-25T08:27:56.288Z,23.33
2022-08-25T08:30:26.415Z,23.38
2022-08-25T08:33:11.638Z,23.44
2022-08-25T08:35:41.429Z,23.49
2022-08-25T08:38:14.678Z,23.54
2022-08-25T08:41:33.888Z,23.61
2022-08-25T08:44:50.820Z,23.64
2022-08-25T08:47:53.072Z,23.68
2022-08-25T08:50:43.580Z,23.75
2022-08-25T08:53:19.873Z,23.80
2022-08-25T08:55:55.531Z,23.80
2022-08-25T08:58:30.361Z,23.84
2022-08-25T09:01:01.428Z,23.92
2022-08-25T09:03:47.356Z,23.96
2022-08-25T09:06:37.174Z,24.04
2022-08-25T09:09:08.901Z,24.09
2022-08-25T09:12:10.067Z,24.15
2022-08-25T09:15:13.824Z,24.20
2022-08-25T09:18:31.087Z,24.29
2022-08-25T09:21:14.031Z,24.35
2022-08-25T09:24:09.697Z,24.39
2022-08-25T09:27:00.633Z,24.44
2022-08-25T09:29:49.524Z,24.50
2022-08-25T09:32:24.051Z,24.59
2022-08-25T09:34:55.697Z,24.62
2022-08-25T09:37:25.337Z,24.75
2022-08-25T09:39:52.641Z,24.80
2022-08-25T09:42:23.962Z,24.86
2022-08-25T09:44:52.301Z,24.86
2022-08-25T09:47:29.999Z,24.89
2022-08-25T09:50:04.455Z,24.90
2022-08-25T09:52:42.616Z,24.91
2022-08-25T09:55:15.551Z,24.94
2022-08-25T09:57:42.865Z,24.94
2022-08-25T10:00:34.620Z,24.98
2022-08-25T10:03:24.806Z,25.08
2022-08-25T10:05:56.377Z,25.15
2022-08-25T10:08:55.722Z,25.18
2022-08-25T10:11:41.619Z,25.22
2022-08-25T10:14:28.758Z,25.28
2022-08-25T10:17:33.494Z,25.31
2022-08-25T10:20:09.748Z,25.42
2022-08-25T10:22:39.996Z,25.49
2022-08-25T10:25:13.090Z,25.50
2022-08-25T10:28:12.879Z,25.59
2022-08-25T10:31:25.856Z,25.59
2022-08-25T10:34:20.767Z,25.62
2022-08-25T10:37:05.338Z,25.58
2022-08-25T10:39:41.578Z,25.57
2022-08-25T10:42:34.992Z,25.55
2022-08-25T10:45:35.160Z,25.59
2022-08-25T10:48:23.723Z,25.60
2022-08-25T10:51:25.565Z,25.72
2022-08-25T10:54:05.178Z,25.77
2022-08-25T10:56:36.971Z,25.80
2022-08-25T10:59:39.191Z,25.89
2022-08-25T11:02:33.983Z,25.89
2022-08-25T11:05:27.356Z,25.99
2022-08-25T11:08:10.551Z,26.06
2022-08-25T11:11:08.903Z,26.13
2022-08-25T11:13:50.694Z,26.19
2022-08-25T11:16:31.425Z,26.23
2022-08-25T11:19:26.963Z,26.25
2022-08-25T11:22:12.543Z,26.30
2022-08-25T11:24:52.642Z,26.39
2022-08-25T11:27:37.633Z,26.40
2022-08-25T11:30:13.689Z,26.44
2022-08-25T11:32:49.294Z,26.53
2022-08-25T11:35:28.335Z,26.55
2022-08-25T11:38:35.367Z,26.65
2022-08-25T11:41:27.187Z,26.69
2022-08-25T11:44:21.799Z,26.72
2022-08-25T11:47:00.918Z,26.70
2022-08-25T11:49:51.246Z,26.76
2022-08-25T11:52:33.103Z,26.79
2022-08-25T11:55:44.102Z,26.83
2022-08-25T11:58:53.779Z,26.85
2022-08-25T12:01:39.342Z,26.87
2022-08-25T12:04:45.094Z,26.92
2022-08-25T12:07:24.844Z,26.97
2022-08-25T12:09:51.632Z,27.02
2022-08-25T12:12:29.717Z,27.07
2022-08-25T12:15:33.379Z,27.09
2022-08-25T12:18:21.938Z,27.03
2022-08-25T12:20:57.724Z,27.09
2022-08-25T12:23:47.112Z,27.14
2022-08-25T12:26:58.053Z,27.20
2022-08-25T12:29:47.219Z,27.23
2022-08-25T12:32:37.702Z,27.25
2022-08-25T12:35:22.907Z,27.31
2022-08-25T12:38:09.852Z,27.33
2022-08-25T12:41:03.444Z,27.36
2022-08-25T12:43:37.527Z,27.34
2022-08-25T12:46:23.790Z,27.31
2022-08-25T12:49:12.291Z,27.26
2022-08-25T12:52:13.045Z,27.26
2022-08-25T12:54:58.321Z,27.29
2022-08-25T12:57:57.814Z,27.31
2022-08-25T13:00:53.128Z,27.37
2022-08-25T13:06:38.706Z,27.50
2022-08-25T13:09:46.764Z,27.55
2022-08-25T13:12:26.883Z,27.64
2022-08-25T13:14:58.196Z,27.67
2022-08-25T13:17:36.091Z,27.70
2022-08-25T13:20:29.165Z,27.66
2022-08-25T13:23:01.013Z,27.66
2022-08-25T13:25:33.315Z,27.67
2022-08-25T13:28:06.544Z,27.63
2022-08-25T13:30:39.371Z,27.58
2022-08-25T13:33:22.540Z,27.56
2022-08-25T13:36:13.280Z,27.57
2022-08-25T13:38:41.674Z,27.53
2022-08-25T13:41:29.622Z,27.51
2022-08-25T13:44:01.943Z,27.50
2022-08-25T13:46:30.174Z,27.47
2022-08-25T13:49:09.503Z,27.44
2022-08-25T13:51:41.957Z,27.42
2022-08-25T13:54:27.234Z,27.41
2022-08-25T13:56:55.058Z,27.40
2022-08-25T13:59:29.468Z,27.44
2022-08-25T14:01:57.474Z,27.48
2022-08-25T14:04:39.650Z,27.53
2022-08-25T14:07:20.989Z,27.59
2022-08-25T14:10:00.323Z,27.63
2022-08-25T14:12:46.416Z,27.69
2022-08-25T14:15:32.118Z,27.78
2022-08-25T14:18:19.582Z,27.85
2022-08-25T14:20:53.554Z,27.90
2022-08-25T14:23:27.004Z,27.95
2022-08-25T14:25:56.691Z,27.95
2022-08-25T14:28:29.180Z,28.00
2022-08-25T14:31:08.356Z,28.01
2022-08-25T14:33:43.867Z,28.04
2022-08-25T14:36:20.743Z,28.05
2022-08-25T14:38:54.659Z,28.06
2022-08-25T14:41:25.551Z,28.08
2022-08-25T14:43:53.755Z,28.08
2022-08-25T14:46:29.556Z,28.04
2022-08-25T14:49:05.180Z,28.04
2022-08-25T14:51:34.298Z,28.03
2022-08-25T14:54:09.998Z,28.07
2022-08-25T14:56:38.049Z,28.10
2022-08-25T14:59:10.161Z,28.12
2022-08-25T15:01:37.410Z,28.15
2022-08-25T15:04:19.130Z,28.20
2022-08-25T15:06:54.300Z,28.22
2022-08-25T15:09:21.659Z,28.24
2022-08-25T15:11:55.122Z,28.25
2022-08-25T15:14:28.828Z,28.26
2022-08-25T15:17:02.323Z,28.27
2022-08-25T15:19:29.463Z,28.29
2022-08-25T15:21:57.849Z,28.31
2022-08-25T15:24:28.521Z,28.32
2022-08-25T15:27:03.915Z,28.32
2022-08-25T15:29:34.980Z,28.34
2022-08-25T15:32:07.482Z,28.33
2022-08-25T15:34:36.605Z,28.36
2022-08-25T15:37:11.888Z,28.36
2022-08-25T15:39:41.605Z,28.37
2022-08-25T15:42:12.447Z,28.40
2022-08-25T15:44:40.240Z,28.40
2022-08-25T15:47:08.591Z,28.40
2022-08-25T15:49:39.656Z,28.41
2022-08-25T15:52:06.964Z,28.42
2022-08-25T15:54:33.896Z,28.38
2022-08-25T15:57:03.390Z,28.32
2022-08-25T15:59:35.842Z,28.28
2022-08-25T16:02:14.826Z,28.22
2022-08-25T16:04:42.696Z,28.13
2022-08-25T16:07:13.257Z,28.06
2022-08-25T16:09:41.701Z,28.01
2022-08-25T16:12:09.025Z,27.98
2022-08-25T16:14:38.335Z,27.94
2022-08-25T16:17:06.637Z,27.91
2022-08-25T16:19:33.799Z,27.91
2022-08-25T16:22:03.400Z,27.91
2022-08-25T16:24:34.195Z,27.90
2022-08-25T16:27:11.334Z,27.87
2022-08-25T16:29:42.763Z,27.85
2022-08-25T16:32:13.591Z,27.84
2022-08-25T16:34:42.123Z,27.88
2022-08-25T16:37:09.730Z,27.92
2022-08-25T16:39:40.028Z,27.94
2022-08-25T16:42:08.313Z,27.93
2022-08-25T16:44:35.301Z,27.83
2022-08-25T16:47:02.941Z,27.75
2022-08-25T16:49:31.057Z,27.77
2022-08-25T16:51:58.063Z,27.68
2022-08-25T16:54:45.193Z,27.64
2022-08-25T16:57:12.569Z,27.37
2022-08-25T16:59:39.702Z,27.10
2022-08-25T17:02:06.782Z,26.83
2022-08-25T17:04:33.994Z,26.57
2022-08-25T17:07:02.163Z,26.37
2022-08-25T17:09:30.099Z,26.16
2022-08-25T17:11:57.345Z,26.01
2022-08-25T17:14:24.622Z,25.86
2022-08-25T17:16:54.735Z,25.69
2022-08-25T17:19:23.622Z,25.56
2022-08-25T17:21:53.763Z,25.49
2022-08-25T17:24:21.449Z,25.45
2022-08-25T17:26:56.804Z,25.43
2022-08-25T17:29:23.756Z,25.42
2022-08-25T17:31:51.895Z,25.39
2022-08-25T17:34:23.061Z,25.37
2022-08-25T17:36:52.181Z,25.30
2022-08-25T17:39:22.343Z,25.26
2022-08-25T17:41:50.741Z,25.20
2022-08-25T17:44:18.885Z,25.18
2022-08-25T17:46:47.978Z,25.14
2022-08-25T17:49:18.920Z,25.10
2022-08-25T17:51:45.737Z,25.07
2022-08-25T17:54:13.649Z,25.07
2022-08-25T17:56:41.302Z,25.04
2022-08-25T17:59:08.809Z,25.04
2022-08-25T18:01:40.292Z,25.03
2022-08-25T18:04:15.605Z,25.03
2022-08-25T18:06:47.513Z,25.01
2022-08-25T18:09:16.356Z,25.00
2022-08-25T18:11:45.040Z,25.03
2022-08-25T18:14:16.494Z,25.02
2022-08-25T18:16:43.507Z,25.00
2022-08-25T18:19:12.446Z,24.96
2022-08-25T18:21:41.756Z,24.91
2022-08-25T18:24:11.556Z,24.85
2022-08-25T18:26:40.546Z,24.82
2022-08-25T18:29:12.134Z,24.78
2022-08-25T18:31:42.136Z,24.75
2022-08-25T18:34:11.587Z,24.71
2022-08-25T18:36:39.703Z,24.69
2022-08-25T18:39:26.288Z,24.69
2022-08-25T18:41:53.554Z,24.71
2022-08-25T18:44:20.807Z,24.71
2022-08-25T18:46:47.722Z,24.72
2022-08-25T18:49:17.188Z,24.71
2022-08-25T18:51:48.185Z,24.76
2022-08-25T18:54:23.109Z,24.80
2022-08-25T18:56:53.294Z,24.81
2022-08-25T18:59:23.505Z,24.79
2022-08-25T19:01:52.676Z,24.77
2022-08-25T19:04:20.195Z,24.78
2022-08-25T19:06:47.448Z,24.78
2022-08-25T19:09:18.646Z,24.79
2022-08-25T19:11:47.472Z,24.79
2022-08-25T19:14:14.448Z,24.83
2022-08-25T19:16:43.710Z,24.79
2022-08-25T19:19:14.112Z,24.80
2022-08-25T19:21:42.477Z,24.82
2022-08-25T19:24:12.984Z,24.84
2022-08-25T19:26:41.267Z,24.84
2022-08-25T19:29:15.563Z,24.81
2022-08-25T19:31:47.672Z,24.80
2022-08-25T19:34:28.407Z,24.79
2022-08-25T19:37:00.631Z,24.79
2022-08-25T19:39:28.943Z,24.78
2022-08-25T19:41:57.760Z,24.76
2022-08-25T19:44:26.195Z,24.76
2022-08-25T19:46:57.160Z,24.72
2022-08-25T19:49:33.414Z,24.71
2022-08-25T19:52:04.663Z,24.67
2022-08-25T19:54:44.404Z,24.60
2022-08-25T19:57:28.211Z,24.57
2022-08-25T20:00:04.334Z,24.56
2022-08-25T20:02:33.202Z,24.54
2022-08-25T20:05:00.920Z,24.52
2022-08-25T20:07:31.521Z,24.53
2022-08-25T20:09:59.742Z,24.52
2022-08-25T20:12:28.895Z,24.52
2022-08-25T20:14:56.963Z,24.51
2022-08-25T20:17:28.347Z,24.51
2022-08-25T20:20:00.057Z,24.50
2022-08-25T20:22:31.799Z,24.50
2022-08-25T20:25:14.051Z,24.51
2022-08-25T20:27:49.461Z,24.50
2022-08-25T20:30:34.870Z,24.50
2022-08-25T20:33:02.636Z,24.49
2022-08-25T20:35:29.793Z,24.47
2022-08-25T20:37:58.600Z,24.46
2022-08-25T20:40:29.429Z,24.45
2022-08-25T20:43:03.010Z,24.49
2022-08-25T20:45:30.551Z,24.50
2022-08-25T20:47:57.449Z,24.46
2022-08-25T20:50:25.540Z,24.42
2022-08-25T20:52:56.606Z,24.39
2022-08-25T20:55:24.771Z,24.36
2022-08-25T20:57:53.725Z,24.35
2022-08-25T21:00:22.793Z,24.35
2022-08-25T21:02:52.037Z,24.34
2022-08-25T21:05:19.491Z,24.34
2022-08-25T21:07:46.390Z,24.33
2022-08-25T21:10:16.114Z,24.33
2022-08-25T21:12:45.170Z,24.31
2022-08-25T21:15:18.223Z,24.30
2022-08-25T21:17:54.346Z,24.32
2022-08-25T21:20:24.052Z,24.31
2022-08-25T21:22:51.995Z,24.25
2022-08-25T21:25:20.818Z,24.24
2022-08-25T21:27:47.930Z,24.23
2022-08-25T21:30:16.424Z,24.23
2022-08-25T21:32:53.053Z,24.20
2022-08-25T21:35:23.707Z,24.18
2022-08-25T21:37:53.419Z,24.18
2022-08-25T21:40:22.891Z,24.18
2022-08-25T21:42:51.172Z,24.18
2022-08-25T21:45:21.025Z,24.20
2022-08-25T21:47:49.078Z,24.20
2022-08-25T21:50:16.119Z,24.19
2022-08-25T21:52:43.097Z,24.22
2022-08-25T21:55:16.249Z,24.19
2022-08-25T21:57:43.959Z,24.20
2022-08-25T22:00:13.285Z,24.20
2022-08-25T22:02:40.162Z,24.20
2022-08-25T22:05:11.516Z,24.22
2022-08-25T22:07:42.072Z,24.22
2022-08-25T22:10:15.932Z,24.23
2022-08-25T22:12:46.509Z,24.17
2022-08-25T22:15:17.739Z,24.16
2022-08-25T22:17:48.031Z,24.14
2022-08-25T22:20:18.527Z,24.12
2022-08-25T22:22:45.405Z,24.11
2022-08-25T22:25:13.135Z,24.09
2022-08-25T22:27:40.179Z,24.07
2022-08-25T22:30:08.012Z,24.06
2022-08-25T22:32:35.447Z,24.05
2022-08-25T22:35:02.653Z,24.05
2022-08-25T22:37:30.335Z,24.06
2022-08-25T22:39:57.617Z,24.08
2022-08-25T22:42:25.721Z,24.06
2022-08-25T22:44:53.898Z,24.04
2022-08-25T22:47:21.544Z,24.02
2022-08-25T22:49:49.093Z,23.99
2022-08-25T22:52:15.943Z,23.99
2022-08-25T22:54:42.706Z,23.98
2022-08-25T22:57:11.541Z,23.97
2022-08-25T22:59:39.540Z,23.97
2022-08-25T23:02:07.414Z,23.98
2022-08-25T23:04:41.242Z,23.98
2022-08-25T23:07:11.347Z,23.99
2022-08-25T23:09:38.631Z,23.96
2022-08-25T23:12:06.353Z,23.95
2022-08-25T23:14:37.934Z,23.91
2022-08-25T23:17:09.354Z,23.90
2022-08-25T23:19:36.866Z,23.87
2022-08-25T23:22:12.516Z,23.84
2022-08-25T23:24:47.790Z,23.83
2022-08-25T23:27:19.259Z,23.82
2022-08-25T23:29:49.413Z,23.80
2022-08-25T23:32:17.996Z,23.80
2022-08-25T23:34:46.763Z,23.79
2022-08-25T23:37:18.437Z,23.78
2022-08-25T23:39:49.360Z,23.77
2022-08-25T23:42:16.729Z,23.76
2022-08-25T23:44:43.547Z,23.73
2022-08-25T23:47:12.075Z,23.72
2022-08-25T23:49:39.873Z,23.70
2022-08-25T23:52:07.137Z,23.66
2022-08-25T23:54:34.086Z,23.65
2022-08-25T23:57:01.557Z,23.62
2022-08-25T23:59:29.014Z,23.62
